Time,TemperatureF,DewpointF,PressureIn,WindDirection,WindDirectionDegrees,WindSpeedMPH,WindSpeedGustMPH,Humidity,HourlyPrecipIn,Conditions,Clouds,dailyrainin,SoftwareType,DateUTC
2013-09-13 00:01:00,65.1,63.0,29.67,NW,319,0.0,0.0,93,0.00,,,0.00,meteobridge,2013-09-13 04:01:00,
2013-09-13 00:03:00,65.1,63.0,29.67,NW,319,0.0,0.0,93,0.00,,,0.00,meteobridge,2013-09-13 04:03:00,
2013-09-13 00:05:00,65.1,63.0,29.67,NW,319,0.0,0.0,93,0.00,,,0.00,meteobridge,2013-09-13 04:05:00,
2013-09-13 00:12:00,65.1,63.0,29.67,WNW,294,0.0,2.0,93,0.00,,,0.00,meteobridge,2013-09-13 04:12:00,
2013-09-13 00:18:00,65.1,63.0,29.67,NW,314,0.0,2.0,93,0.00,,,0.00,meteobridge,2013-09-13 04:18:00,
2013-09-13 00:20:00,65.1,63.0,29.67,North,0,0.0,2.9,93,0.00,,,0.00,meteobridge,2013-09-13 04:20:00,
2013-09-13 00:27:00,65.1,63.0,29.67,West,271,0.0,0.0,93,0.00,,,0.00,meteobridge,2013-09-13 04:27:00,
2013-09-13 00:29:00,65.1,63.0,29.66,West,264,0.0,2.0,93,0.00,,,0.00,meteobridge,2013-09-13 04:29:00,
2013-09-13 00:35:00,65.1,63.0,29.66,NW,323,0.0,0.0,93,0.00,,,0.00,meteobridge,2013-09-13 04:35:00,
2013-09-13 00:41:00,65.1,63.0,29.66,WNW,284,0.0,0.0,93,0.00,,,0.00,meteobridge,2013-09-13 04:41:00,
2013-09-13 00:48:00,65.1,63.0,29.66,West,270,0.0,0.9,93,0.00,,,0.00,meteobridge,2013-09-13 04:48:00,
2013-09-13 00:54:00,65.1,63.0,29.66,NW,326,0.0,2.0,93,0.00,,,0.00,meteobridge,2013-09-13 04:54:00,
2013-09-13 01:00:00,65.1,63.0,29.66,WNW,294,0.0,2.0,93,0.00,,,0.00,meteobridge,2013-09-13 05:00:00,
2013-09-13 01:07:00,65.1,63.0,29.66,WNW,295,0.0,0.9,93,0.00,,,0.00,meteobridge,2013-09-13 05:07:00,
2013-09-13 01:13:00,64.9,62.8,29.66,North,8,2.0,2.9,93,0.01,,,0.01,meteobridge,2013-09-13 05:13:00,
2013-09-13 01:19:00,64.9,62.8,29.65,NW,309,0.0,0.9,93,0.02,,,0.02,meteobridge,2013-09-13 05:19:00,
2013-09-13 01:26:00,64.8,62.6,29.65,NNE,20,0.0,2.0,93,0.04,,,0.04,meteobridge,2013-09-13 05:26:00,
2013-09-13 01:32:00,64.4,62.4,29.65,NNE,13,0.0,2.0,93,0.04,,,0.04,meteobridge,2013-09-13 05:32:00,
2013-09-13 01:38:00,64.2,62.2,29.65,NNE,12,0.0,0.0,93,0.05,,,0.05,meteobridge,2013-09-13 05:38:00,
2013-09-13 01:44:00,64.2,62.2,29.65,NNE,12,0.0,0.0,93,0.05,,,0.05,meteobridge,2013-09-13 05:44:00,
2013-09-13 01:50:00,64.2,62.2,29.64,North,6,0.9,0.9,93,0.06,,,0.06,meteobridge,2013-09-13 05:50:00,
2013-09-13 01:57:00,64.0,62.1,29.64,North,6,0.0,0.9,93,0.06,,,0.06,meteobridge,2013-09-13 05:57:00,
2013-09-13 02:03:00,64.0,62.1,29.64,North,6,0.0,0.0,93,0.07,,,0.07,meteobridge,2013-09-13 06:03:00,
2013-09-13 02:10:00,64.2,62.2,29.63,North,11,0.0,0.0,93,0.06,,,0.07,meteobridge,2013-09-13 06:10:00,
2013-09-13 02:16:00,64.0,62.1,29.63,NNE,12,0.0,0.0,93,0.05,,,0.07,meteobridge,2013-09-13 06:16:00,
2013-09-13 02:22:00,63.9,61.9,29.63,NNE,12,0.0,0.0,93,0.04,,,0.07,meteobridge,2013-09-13 06:22:00,
2013-09-13 02:31:00,63.7,61.7,29.62,NNE,12,0.0,0.0,93,0.03,,,0.08,meteobridge,2013-09-13 06:31:00,
2013-09-13 02:40:00,63.5,61.5,29.62,NNE,12,0.0,0.0,93,0.03,,,0.08,meteobridge,2013-09-13 06:40:00,
2013-09-13 02:46:00,63.5,61.5,29.61,North,11,0.0,0.0,93,0.03,,,0.08,meteobridge,2013-09-13 06:46:00,
2013-09-13 02:52:00,63.3,61.3,29.62,North,11,0.0,0.0,93,0.02,,,0.08,meteobridge,2013-09-13 06:52:00,
2013-09-13 03:01:00,63.1,61.2,29.61,NNE,12,0.0,0.0,93,0.01,,,0.08,meteobridge,2013-09-13 07:01:00,
2013-09-13 03:07:00,63.3,61.3,29.62,NNE,12,0.0,0.0,93,0.01,,,0.08,meteobridge,2013-09-13 07:07:00,
2013-09-13 03:13:00,63.3,61.3,29.62,North,11,0.0,0.0,93,0.01,,,0.08,meteobridge,2013-09-13 07:13:00,
2013-09-13 03:22:00,63.3,61.3,29.61,North,11,0.0,0.0,93,0.00,,,0.08,meteobridge,2013-09-13 07:22:00,
2013-09-13 03:31:00,63.3,61.3,29.61,North,9,0.0,0.0,93,0.00,,,0.08,meteobridge,2013-09-13 07:31:00,
2013-09-13 03:37:00,63.5,61.5,29.62,NNW,333,0.0,0.0,93,0.00,,,0.08,meteobridge,2013-09-13 07:37:00,
2013-09-13 03:43:00,63.3,61.3,29.62,West,280,0.0,0.0,93,0.00,,,0.08,meteobridge,2013-09-13 07:43:00,
2013-09-13 03:50:00,63.5,61.5,29.62,NNE,24,0.9,2.0,93,0.00,,,0.08,meteobridge,2013-09-13 07:50:00,
2013-09-13 03:56:00,63.5,61.5,29.62,WSW,256,0.0,2.9,93,0.00,,,0.08,meteobridge,2013-09-13 07:56:00,
2013-09-13 04:02:00,63.7,61.7,29.62,NNE,13,0.9,0.9,93,0.00,,,0.08,meteobridge,2013-09-13 08:02:00,
2013-09-13 04:09:00,63.7,61.7,29.62,North,352,0.0,0.9,93,0.00,,,0.08,meteobridge,2013-09-13 08:09:00,
2013-09-13 04:15:00,63.7,61.7,29.62,NNW,338,0.0,0.0,93,0.00,,,0.08,meteobridge,2013-09-13 08:15:00,
2013-09-13 04:21:00,63.7,61.7,29.62,NE,43,0.9,0.9,93,0.00,,,0.08,meteobridge,2013-09-13 08:21:00,
2013-09-13 04:30:00,63.7,61.7,29.62,NNW,340,0.0,0.0,93,0.00,,,0.08,meteobridge,2013-09-13 08:30:00,
2013-09-13 04:36:00,63.7,61.7,29.62,WNW,301,0.0,0.0,93,0.00,,,0.08,meteobridge,2013-09-13 08:36:00,
2013-09-13 04:42:00,63.9,61.9,29.62,WNW,299,0.0,2.0,93,0.00,,,0.08,meteobridge,2013-09-13 08:42:00,
2013-09-13 04:50:00,63.9,61.9,29.62,NW,306,0.9,2.0,93,0.00,,,0.08,meteobridge,2013-09-13 08:50:00,
2013-09-13 04:56:00,63.9,61.9,29.62,WNW,295,0.0,0.9,93,0.00,,,0.08,meteobridge,2013-09-13 08:56:00,
2013-09-13 05:03:00,63.9,61.9,29.62,NNW,342,0.9,2.9,93,0.00,,,0.08,meteobridge,2013-09-13 09:03:00,
2013-09-13 05:09:00,63.9,61.9,29.62,North,0,0.0,2.0,93,0.00,,,0.08,meteobridge,2013-09-13 09:09:00,
2013-09-13 05:15:00,63.9,61.9,29.62,WNW,288,2.0,2.9,93,0.00,,,0.08,meteobridge,2013-09-13 09:15:00,
2013-09-13 05:22:00,63.7,61.7,29.62,NNW,335,0.0,2.0,93,0.00,,,0.08,meteobridge,2013-09-13 09:22:00,
2013-09-13 05:30:00,63.3,61.3,29.63,WNW,291,0.9,2.0,93,0.00,,,0.08,meteobridge,2013-09-13 09:30:00,
2013-09-13 05:36:00,63.1,61.2,29.62,NNW,333,2.0,4.0,93,0.00,,,0.08,meteobridge,2013-09-13 09:36:00,
2013-09-13 05:42:00,63.0,61.0,29.62,SSW,211,0.9,2.0,93,0.00,,,0.08,meteobridge,2013-09-13 09:42:00,
2013-09-13 05:49:00,62.4,60.4,29.63,NW,315,0.9,0.9,93,0.00,,,0.08,meteobridge,2013-09-13 09:49:00,
2013-09-13 05:55:00,62.4,60.4,29.63,WSW,241,0.9,0.9,93,0.00,,,0.08,meteobridge,2013-09-13 09:55:00,
2013-09-13 06:01:00,62.2,60.3,29.63,NW,306,0.0,0.9,93,0.00,,,0.08,meteobridge,2013-09-13 10:01:00,
2013-09-13 06:10:00,62.1,60.1,29.64,WNW,294,0.0,0.9,93,0.00,,,0.08,meteobridge,2013-09-13 10:10:00,
2013-09-13 06:16:00,61.9,59.9,29.64,NNW,333,0.0,0.9,93,0.00,,,0.08,meteobridge,2013-09-13 10:16:00,
2013-09-13 06:22:00,61.7,59.7,29.64,NNW,347,0.0,2.0,93,0.00,,,0.08,meteobridge,2013-09-13 10:22:00,
2013-09-13 06:29:00,61.5,59.5,29.64,NW,311,0.0,0.0,93,0.00,,,0.08,meteobridge,2013-09-13 10:29:00,
2013-09-13 06:35:00,61.5,59.5,29.64,NNW,342,0.0,2.0,93,0.00,,,0.08,meteobridge,2013-09-13 10:35:00,
2013-09-13 06:41:00,61.3,59.4,29.64,NNW,330,0.0,0.9,93,0.00,,,0.08,meteobridge,2013-09-13 10:41:00,
2013-09-13 06:47:00,61.3,59.4,29.63,North,9,0.0,0.0,93,0.00,,,0.08,meteobridge,2013-09-13 10:47:00,
2013-09-13 06:54:00,61.2,59.2,29.63,West,263,0.0,0.0,93,0.00,,,0.08,meteobridge,2013-09-13 10:54:00,
2013-09-13 07:00:00,61.0,59.0,29.64,West,263,0.0,0.0,93,0.00,,,0.08,meteobridge,2013-09-13 11:00:00,
2013-09-13 07:06:00,61.0,59.0,29.64,West,274,0.0,0.0,93,0.00,,,0.08,meteobridge,2013-09-13 11:06:00,
2013-09-13 07:12:00,60.8,58.8,29.64,WNW,294,0.0,0.9,93,0.00,,,0.08,meteobridge,2013-09-13 11:12:00,
2013-09-13 07:21:00,60.6,58.6,29.65,WNW,283,0.0,0.0,93,0.00,,,0.08,meteobridge,2013-09-13 11:21:00,
2013-09-13 07:27:00,60.8,58.8,29.65,NNW,330,0.0,0.0,93,0.00,,,0.08,meteobridge,2013-09-13 11:27:00,
2013-09-13 07:33:00,60.8,58.8,29.65,NNW,333,0.0,0.0,93,0.00,,,0.08,meteobridge,2013-09-13 11:33:00,
2013-09-13 07:39:00,61.0,59.0,29.65,NNW,333,0.0,0.0,93,0.00,,,0.08,meteobridge,2013-09-13 11:39:00,
2013-09-13 07:46:00,60.4,58.5,29.65,NNE,25,0.0,6.9,93,0.00,,,0.08,meteobridge,2013-09-13 11:46:00,
2013-09-13 07:53:00,60.1,58.1,29.65,NNW,332,0.0,2.9,93,0.00,,,0.08,meteobridge,2013-09-13 11:53:00,
2013-09-13 07:59:00,60.1,58.1,29.65,NNW,329,0.0,2.0,93,0.00,,,0.08,meteobridge,2013-09-13 11:59:00,
2013-09-13 08:07:00,60.3,58.3,29.65,WNW,297,0.0,0.9,93,0.00,,,0.08,meteobridge,2013-09-13 12:07:00,
2013-09-13 08:13:00,60.4,58.5,29.64,WNW,297,0.0,0.0,93,0.00,,,0.08,meteobridge,2013-09-13 12:13:00,
2013-09-13 08:20:00,60.6,58.6,29.65,NW,326,0.0,0.9,93,0.00,,,0.08,meteobridge,2013-09-13 12:20:00,
2013-09-13 08:26:00,61.0,59.0,29.65,NE,56,0.0,0.0,93,0.00,,,0.08,meteobridge,2013-09-13 12:26:00,
2013-09-13 08:33:00,60.6,58.6,29.65,WSW,249,0.9,2.9,93,0.00,,,0.08,meteobridge,2013-09-13 12:33:00,
2013-09-13 08:39:00,60.6,58.6,29.65,NNW,347,0.0,0.9,93,0.00,,,0.08,meteobridge,2013-09-13 12:39:00,
2013-09-13 08:45:00,60.4,58.5,29.65,NW,304,0.9,0.9,93,0.00,,,0.08,meteobridge,2013-09-13 12:45:00,
2013-09-13 08:51:00,60.4,58.5,29.65,ENE,59,0.0,0.0,93,0.00,,,0.08,meteobridge,2013-09-13 12:51:00,
2013-09-13 09:00:00,60.6,58.6,29.65,SSW,210,0.0,0.9,93,0.00,,,0.08,meteobridge,2013-09-13 13:00:00,
2013-09-13 09:06:00,60.6,58.6,29.65,West,269,0.0,2.0,93,0.00,,,0.08,meteobridge,2013-09-13 13:06:00,
2013-09-13 09:12:00,61.0,59.0,29.65,West,276,0.0,0.9,93,0.00,,,0.08,meteobridge,2013-09-13 13:12:00,
2013-09-13 09:20:00,61.2,59.2,29.65,SE,139,0.0,0.9,93,0.00,,,0.08,meteobridge,2013-09-13 13:20:00,
2013-09-13 09:27:00,61.0,59.0,29.65,ENE,70,0.0,2.0,93,0.00,,,0.08,meteobridge,2013-09-13 13:27:00,
2013-09-13 09:33:00,61.2,59.2,29.65,North,356,2.0,2.9,93,0.00,,,0.08,meteobridge,2013-09-13 13:33:00,
2013-09-13 09:41:00,61.2,59.2,29.66,NW,324,0.0,0.9,93,0.00,,,0.08,meteobridge,2013-09-13 13:41:00,
2013-09-13 09:48:00,61.3,59.4,29.66,NW,321,2.0,2.0,93,0.00,,,0.08,meteobridge,2013-09-13 13:48:00,
2013-09-13 09:54:00,61.5,59.5,29.66,NNE,15,0.0,2.0,93,0.00,,,0.08,meteobridge,2013-09-13 13:54:00,
2013-09-13 10:00:00,61.5,59.5,29.66,WNW,298,0.0,0.9,93,0.00,,,0.08,meteobridge,2013-09-13 14:00:00,
2013-09-13 10:06:00,61.7,59.7,29.66,North,350,0.0,4.0,93,0.00,,,0.08,meteobridge,2013-09-13 14:06:00,
2013-09-13 10:12:00,61.9,59.9,29.66,NW,306,0.9,2.9,93,0.00,,,0.08,meteobridge,2013-09-13 14:12:00,
2013-09-13 10:21:00,62.1,60.1,29.66,West,263,0.9,2.9,93,0.00,,,0.08,meteobridge,2013-09-13 14:21:00,
2013-09-13 10:27:00,62.4,60.4,29.66,WSW,257,0.0,2.9,93,0.00,,,0.08,meteobridge,2013-09-13 14:27:00,
2013-09-13 10:33:00,62.8,60.8,29.66,NNW,337,0.0,0.9,93,0.00,,,0.08,meteobridge,2013-09-13 14:33:00,
2013-09-13 10:39:00,63.0,61.0,29.66,NW,308,4.9,4.9,93,0.00,,,0.08,meteobridge,2013-09-13 14:39:00,
2013-09-13 10:46:00,63.1,60.8,29.65,NNW,328,0.0,6.0,92,0.00,,,0.08,meteobridge,2013-09-13 14:46:00,
2013-09-13 10:52:00,63.7,61.3,29.65,East,101,0.0,2.9,92,0.00,,,0.08,meteobridge,2013-09-13 14:52:00,
2013-09-13 10:58:00,64.0,61.3,29.66,ENE,76,0.0,0.9,91,0.00,,,0.08,meteobridge,2013-09-13 14:58:00,
2013-09-13 11:04:00,64.4,61.3,29.66,NE,34,0.0,8.9,90,0.00,,,0.08,meteobridge,2013-09-13 15:04:00,
2013-09-13 11:10:00,64.6,61.3,29.66,NNW,328,0.0,4.0,89,0.00,,,0.08,meteobridge,2013-09-13 15:10:00,
2013-09-13 11:16:00,64.9,61.3,29.66,West,263,0.9,2.0,88,0.00,,,0.08,meteobridge,2013-09-13 15:16:00,
2013-09-13 11:23:00,64.8,61.2,29.67,North,354,0.0,2.0,88,0.00,,,0.08,meteobridge,2013-09-13 15:23:00,
2013-09-13 11:29:00,64.8,60.8,29.67,North,352,0.9,4.9,87,0.00,,,0.08,meteobridge,2013-09-13 15:29:00,
2013-09-13 11:35:00,64.8,60.8,29.67,NW,306,0.0,2.0,87,0.00,,,0.08,meteobridge,2013-09-13 15:35:00,
2013-09-13 11:42:00,64.8,60.4,29.67,NE,47,0.0,6.0,86,0.00,,,0.08,meteobridge,2013-09-13 15:42:00,
2013-09-13 11:48:00,64.6,59.9,29.67,NE,46,0.0,2.9,85,0.00,,,0.08,meteobridge,2013-09-13 15:48:00,
2013-09-13 11:54:00,64.9,60.6,29.67,NW,312,0.0,2.0,86,0.00,,,0.08,meteobridge,2013-09-13 15:54:00,
2013-09-13 12:00:00,64.9,60.3,29.67,West,271,0.9,2.9,85,0.00,,,0.08,meteobridge,2013-09-13 16:00:00,
2013-09-13 12:06:00,65.1,59.9,29.67,East,87,0.0,4.0,83,0.00,,,0.08,meteobridge,2013-09-13 16:06:00,
2013-09-13 12:12:00,65.5,59.5,29.67,NW,318,2.0,8.1,81,0.00,,,0.08,meteobridge,2013-09-13 16:12:00,
2013-09-13 12:18:00,66.2,60.6,29.66,West,281,2.9,2.9,82,0.00,,,0.08,meteobridge,2013-09-13 16:18:00,
2013-09-13 12:24:00,66.9,60.6,29.66,WSW,239,2.9,4.9,80,0.00,,,0.08,meteobridge,2013-09-13 16:24:00,
2013-09-13 12:30:00,67.6,60.3,29.67,North,354,2.0,2.9,77,0.00,,,0.08,meteobridge,2013-09-13 16:30:00,
2013-09-13 12:37:00,67.8,59.9,29.66,East,89,0.0,2.9,76,0.00,,,0.08,meteobridge,2013-09-13 16:37:00,
2013-09-13 12:43:00,68.4,60.4,29.66,NW,326,4.9,6.9,76,0.00,,,0.08,meteobridge,2013-09-13 16:43:00,
2013-09-13 12:49:00,68.7,60.4,29.66,North,350,0.9,6.9,75,0.00,,,0.08,meteobridge,2013-09-13 16:49:00,
2013-09-13 12:55:00,69.1,61.2,29.66,NNE,30,2.0,6.9,76,0.00,,,0.08,meteobridge,2013-09-13 16:55:00,
2013-09-13 13:01:00,69.4,61.9,29.66,SSW,213,0.9,4.0,77,0.00,,,0.08,meteobridge,2013-09-13 17:01:00,
2013-09-13 13:07:00,69.8,60.8,29.65,NW,322,4.0,4.9,73,0.00,,,0.08,meteobridge,2013-09-13 17:07:00,
2013-09-13 13:13:00,69.6,59.7,29.65,WNW,291,2.0,4.9,71,0.00,,,0.08,meteobridge,2013-09-13 17:13:00,
2013-09-13 13:19:00,70.0,60.6,29.65,West,276,0.9,4.0,72,0.00,,,0.08,meteobridge,2013-09-13 17:19:00,
2013-09-13 13:25:00,70.5,61.0,29.65,WSW,246,0.0,2.9,72,0.00,,,0.08,meteobridge,2013-09-13 17:25:00,
2013-09-13 13:31:00,70.5,60.3,29.65,NNW,328,0.9,4.9,70,0.00,,,0.08,meteobridge,2013-09-13 17:31:00,
2013-09-13 13:40:00,70.3,60.1,29.65,NNE,18,0.9,8.1,70,0.00,,,0.08,meteobridge,2013-09-13 17:40:00,
2013-09-13 13:46:00,70.9,60.3,29.65,NW,309,0.9,4.9,69,0.00,,,0.08,meteobridge,2013-09-13 17:46:00,
2013-09-13 13:52:00,70.2,59.5,29.65,East,79,0.9,2.9,69,0.00,,,0.08,meteobridge,2013-09-13 17:52:00,
2013-09-13 14:00:00,68.2,58.8,29.65,ENE,66,2.0,8.9,72,0.00,,,0.08,meteobridge,2013-09-13 18:00:00,
2013-09-13 14:06:00,66.7,59.4,29.66,NE,44,0.0,6.0,77,0.00,,,0.08,meteobridge,2013-09-13 18:06:00,
2013-09-13 14:12:00,66.0,58.6,29.66,WNW,294,0.0,4.0,77,0.00,,,0.08,meteobridge,2013-09-13 18:12:00,
2013-09-13 14:20:00,67.6,59.0,29.65,West,280,0.9,4.0,74,0.00,,,0.08,meteobridge,2013-09-13 18:20:00,
2013-09-13 14:27:00,69.1,59.7,29.65,ESE,109,2.0,4.9,72,0.00,,,0.08,meteobridge,2013-09-13 18:27:00,
2013-09-13 14:33:00,70.0,60.1,29.64,NW,314,4.0,4.0,71,0.00,,,0.08,meteobridge,2013-09-13 18:33:00,
2013-09-13 14:39:00,70.3,60.4,29.65,NE,56,0.0,4.9,71,0.00,,,0.08,meteobridge,2013-09-13 18:39:00,
2013-09-13 14:45:00,71.1,59.5,29.65,NNW,334,0.9,8.9,67,0.00,,,0.08,meteobridge,2013-09-13 18:45:00,
2013-09-13 14:51:00,70.9,58.5,29.65,NNW,333,0.9,4.0,65,0.00,,,0.08,meteobridge,2013-09-13 18:51:00,
2013-09-13 14:57:00,70.2,57.0,29.65,NNW,338,4.9,6.9,63,0.00,,,0.08,meteobridge,2013-09-13 18:57:00,
2013-09-13 15:03:00,69.6,57.4,29.65,North,352,6.9,8.1,65,0.00,,,0.08,meteobridge,2013-09-13 19:03:00,
2013-09-13 15:09:00,69.6,57.7,29.66,ENE,60,2.9,6.9,66,0.00,,,0.08,meteobridge,2013-09-13 19:09:00,
2013-09-13 15:15:00,69.6,57.7,29.66,ESE,114,2.0,8.1,66,0.00,,,0.08,meteobridge,2013-09-13 19:15:00,
2013-09-13 15:21:00,70.0,57.7,29.66,ENE,69,2.0,4.0,65,0.00,,,0.08,meteobridge,2013-09-13 19:21:00,
2013-09-13 15:28:00,70.7,58.3,29.66,NNW,337,4.0,4.9,65,0.00,,,0.08,meteobridge,2013-09-13 19:28:00,
2013-09-13 15:34:00,70.5,57.7,29.67,East,83,0.0,4.0,64,0.00,,,0.08,meteobridge,2013-09-13 19:34:00,
2013-09-13 15:40:00,70.0,57.7,29.67,WNW,283,2.9,6.0,65,0.00,,,0.08,meteobridge,2013-09-13 19:40:00,
2013-09-13 15:46:00,70.2,58.6,29.67,ENE,77,0.0,2.0,67,0.00,,,0.08,meteobridge,2013-09-13 19:46:00,
2013-09-13 15:52:00,69.3,56.1,29.67,East,86,2.0,2.0,63,0.00,,,0.08,meteobridge,2013-09-13 19:52:00,
2013-09-13 16:00:00,69.4,56.7,29.67,NE,55,0.9,4.9,64,0.00,,,0.08,meteobridge,2013-09-13 20:00:00,
2013-09-13 16:06:00,70.0,56.3,29.67,East,92,0.9,2.0,62,0.00,,,0.08,meteobridge,2013-09-13 20:06:00,
2013-09-13 16:22:00,69.4,56.7,29.69,West,278,2.9,4.0,64,0.00,,,0.08,meteobridge,2013-09-13 20:22:00,
2013-09-13 16:30:00,69.3,57.0,29.69,SSE,149,4.0,4.0,65,0.00,,,0.08,meteobridge,2013-09-13 20:30:00,
2013-09-13 16:36:00,68.2,55.6,29.69,NE,56,2.9,4.0,64,0.00,,,0.08,meteobridge,2013-09-13 20:36:00,
2013-09-13 16:42:00,67.6,55.9,29.70,NNE,12,2.9,2.9,66,0.00,,,0.08,meteobridge,2013-09-13 20:42:00,
2013-09-13 16:50:00,68.0,56.3,29.70,SSE,158,0.9,6.0,66,0.00,,,0.08,meteobridge,2013-09-13 20:50:00,
2013-09-13 16:57:00,68.2,55.9,29.70,East,91,0.9,4.0,65,0.00,,,0.08,meteobridge,2013-09-13 20:57:00,
2013-09-13 17:03:00,67.6,54.7,29.70,NW,319,6.9,8.9,63,0.00,,,0.08,meteobridge,2013-09-13 21:03:00,
2013-09-13 17:11:00,66.9,54.9,29.71,ESE,121,0.0,2.9,65,0.00,,,0.08,meteobridge,2013-09-13 21:11:00,
2013-09-13 17:17:00,66.4,55.0,29.71,NNE,14,0.9,2.9,67,0.00,,,0.08,meteobridge,2013-09-13 21:17:00,
2013-09-13 17:23:00,65.7,54.3,29.71,NW,306,2.9,6.0,67,0.00,,,0.08,meteobridge,2013-09-13 21:23:00,
2013-09-13 17:29:00,65.1,55.0,29.71,North,354,0.9,4.0,70,0.00,,,0.08,meteobridge,2013-09-13 21:29:00,
2013-09-13 17:36:00,64.8,55.6,29.71,WNW,288,0.0,0.9,72,0.00,,,0.08,meteobridge,2013-09-13 21:36:00,
2013-09-13 17:42:00,64.6,55.4,29.72,SE,139,0.0,2.0,72,0.00,,,0.08,meteobridge,2013-09-13 21:42:00,
2013-09-13 17:48:00,64.2,54.7,29.72,ENE,71,0.0,4.0,71,0.00,,,0.08,meteobridge,2013-09-13 21:48:00,
2013-09-13 17:54:00,64.0,54.5,29.72,North,11,0.0,2.0,71,0.00,,,0.08,meteobridge,2013-09-13 21:54:00,
2013-09-13 18:00:00,63.7,54.1,29.72,North,0,0.9,4.0,71,0.00,,,0.08,meteobridge,2013-09-13 22:00:00,
2013-09-13 18:07:00,63.1,54.0,29.72,West,274,0.0,2.9,72,0.00,,,0.08,meteobridge,2013-09-13 22:07:00,
2013-09-13 18:13:00,62.8,54.7,29.72,North,359,0.9,0.9,75,0.00,,,0.08,meteobridge,2013-09-13 22:13:00,
2013-09-13 18:20:00,62.1,54.3,29.72,SE,135,0.9,0.9,76,0.00,,,0.08,meteobridge,2013-09-13 22:20:00,
2013-09-13 18:26:00,61.7,54.5,29.72,ESE,102,0.0,2.0,77,0.00,,,0.08,meteobridge,2013-09-13 22:26:00,
2013-09-13 18:32:00,61.5,54.7,29.72,NNE,30,0.0,2.0,78,0.00,,,0.08,meteobridge,2013-09-13 22:32:00,
2013-09-13 18:39:00,61.2,54.7,29.72,East,99,0.0,0.0,79,0.00,,,0.08,meteobridge,2013-09-13 22:39:00,
2013-09-13 18:45:00,61.0,54.1,29.72,NE,37,0.9,6.0,78,0.00,,,0.08,meteobridge,2013-09-13 22:45:00,
2013-09-13 18:51:00,61.0,54.1,29.72,East,90,0.0,0.9,78,0.00,,,0.08,meteobridge,2013-09-13 22:51:00,
2013-09-13 18:57:00,60.8,54.3,29.72,NE,39,0.0,2.9,79,0.00,,,0.08,meteobridge,2013-09-13 22:57:00,
2013-09-13 19:03:00,60.4,52.9,29.73,ENE,76,0.0,4.0,76,0.00,,,0.08,meteobridge,2013-09-13 23:03:00,
2013-09-13 19:10:00,60.3,53.1,29.73,West,269,0.0,2.0,77,0.00,,,0.08,meteobridge,2013-09-13 23:10:00,
2013-09-13 19:16:00,60.1,52.5,29.73,ENE,74,0.0,8.1,76,0.00,,,0.08,meteobridge,2013-09-13 23:16:00,
2013-09-13 19:22:00,59.7,52.9,29.74,West,271,0.9,0.9,78,0.00,,,0.08,meteobridge,2013-09-13 23:22:00,
2013-09-13 19:28:00,59.4,52.5,29.74,NNE,23,6.0,6.0,78,0.00,,,0.08,meteobridge,2013-09-13 23:28:00,
2013-09-13 19:35:00,59.0,52.5,29.75,NE,56,0.0,0.9,79,0.00,,,0.08,meteobridge,2013-09-13 23:35:00,
2013-09-13 19:41:00,58.6,52.5,29.75,East,82,0.0,4.0,80,0.00,,,0.08,meteobridge,2013-09-13 23:41:00,
2013-09-13 19:47:00,58.6,52.9,29.76,North,354,0.0,0.0,81,0.00,,,0.08,meteobridge,2013-09-13 23:47:00,
2013-09-13 19:53:00,58.3,52.2,29.77,ENE,75,0.0,0.9,80,0.00,,,0.08,meteobridge,2013-09-13 23:53:00,
2013-09-13 20:00:00,57.9,51.4,29.78,WSW,256,0.9,2.9,79,0.00,,,0.08,meteobridge,2013-09-14 00:00:00,
2013-09-13 20:06:00,57.7,51.3,29.78,NNE,31,0.0,0.0,79,0.00,,,0.08,meteobridge,2013-09-14 00:06:00,
2013-09-13 20:12:00,57.6,51.1,29.79,North,1,0.0,6.0,79,0.00,,,0.08,meteobridge,2013-09-14 00:12:00,
2013-09-13 20:19:00,57.4,50.9,29.79,ENE,63,0.0,6.9,79,0.00,,,0.08,meteobridge,2013-09-14 00:19:00,
2013-09-13 20:25:00,57.2,51.1,29.79,SSW,212,0.0,0.9,80,0.00,,,0.08,meteobridge,2013-09-14 00:25:00,
2013-09-13 20:31:00,56.8,51.1,29.80,NW,314,0.0,0.0,81,0.00,,,0.08,meteobridge,2013-09-14 00:31:00,
2013-09-13 20:40:00,56.5,51.1,29.80,East,101,0.0,0.9,82,0.00,,,0.08,meteobridge,2013-09-14 00:40:00,
2013-09-13 20:46:00,56.1,50.7,29.81,NNE,13,0.0,2.9,82,0.00,,,0.08,meteobridge,2013-09-14 00:46:00,
2013-09-13 20:52:00,55.9,50.5,29.81,SE,135,0.0,2.0,82,0.00,,,0.08,meteobridge,2013-09-14 00:52:00,
2013-09-13 20:59:00,55.9,50.5,29.81,ENE,76,0.0,2.9,82,0.00,,,0.08,meteobridge,2013-09-14 00:59:00,
2013-09-13 21:05:00,55.8,50.4,29.81,ESE,117,0.0,2.9,82,0.00,,,0.08,meteobridge,2013-09-14 01:05:00,
2013-09-13 21:11:00,55.8,50.4,29.81,East,96,2.0,2.0,82,0.00,,,0.08,meteobridge,2013-09-14 01:11:00,
2013-09-13 21:17:00,55.6,50.2,29.81,ENE,68,0.0,2.9,82,0.00,,,0.08,meteobridge,2013-09-14 01:17:00,
2013-09-13 21:23:00,55.4,50.0,29.81,East,84,0.0,0.9,82,0.00,,,0.08,meteobridge,2013-09-14 01:23:00,
2013-09-13 21:29:00,55.2,50.2,29.81,WSW,240,0.0,0.9,83,0.00,,,0.08,meteobridge,2013-09-14 01:29:00,
2013-09-13 21:35:00,54.9,50.2,29.81,ESE,114,0.0,0.9,84,0.00,,,0.08,meteobridge,2013-09-14 01:35:00,
2013-09-13 21:42:00,54.7,50.0,29.81,NNE,29,0.0,2.9,84,0.00,,,0.08,meteobridge,2013-09-14 01:42:00,
2013-09-13 21:50:00,54.3,49.6,29.82,WSW,252,0.9,2.9,84,0.00,,,0.08,meteobridge,2013-09-14 01:50:00,
2013-09-13 21:56:00,54.3,49.8,29.82,North,6,0.9,6.0,85,0.00,,,0.08,meteobridge,2013-09-14 01:56:00,
2013-09-13 22:03:00,54.3,49.6,29.82,NNE,23,2.0,6.0,84,0.00,,,0.08,meteobridge,2013-09-14 02:03:00,
2013-09-13 22:11:00,54.1,49.5,29.82,NNE,21,0.0,4.9,84,0.00,,,0.08,meteobridge,2013-09-14 02:11:00,
2013-09-13 22:17:00,54.1,49.5,29.82,ESE,115,0.0,4.0,84,0.00,,,0.08,meteobridge,2013-09-14 02:17:00,
2013-09-13 22:23:00,54.1,49.5,29.83,North,349,0.0,4.0,84,0.00,,,0.08,meteobridge,2013-09-14 02:23:00,
2013-09-13 22:30:00,54.1,49.8,29.83,ENE,66,0.0,0.9,85,0.00,,,0.08,meteobridge,2013-09-14 02:30:00,
2013-09-13 22:36:00,54.1,49.8,29.83,North,11,2.0,4.0,85,0.00,,,0.08,meteobridge,2013-09-14 02:36:00,
2013-09-13 22:42:00,54.0,49.3,29.82,North,1,0.0,2.0,84,0.00,,,0.08,meteobridge,2013-09-14 02:42:00,
2013-09-13 22:50:00,53.8,49.1,29.83,ENE,57,2.0,8.9,84,0.00,,,0.08,meteobridge,2013-09-14 02:50:00,
2013-09-13 22:56:00,53.8,49.1,29.83,East,98,0.9,4.0,84,0.00,,,0.08,meteobridge,2013-09-14 02:56:00,
2013-09-13 23:02:00,53.6,49.3,29.83,East,83,0.0,2.0,85,0.00,,,0.08,meteobridge,2013-09-14 03:02:00,
2013-09-13 23:11:00,53.4,49.1,29.83,West,273,0.0,6.0,85,0.00,,,0.08,meteobridge,2013-09-14 03:11:00,
2013-09-13 23:17:00,53.2,48.9,29.83,NE,44,2.0,6.0,85,0.00,,,0.08,meteobridge,2013-09-14 03:17:00,
2013-09-13 23:23:00,53.2,48.9,29.83,NE,51,0.0,4.9,85,0.00,,,0.08,meteobridge,2013-09-14 03:23:00,
2013-09-13 23:29:00,53.2,48.9,29.83,NW,318,0.0,6.0,85,0.00,,,0.08,meteobridge,2013-09-14 03:29:00,
2013-09-13 23:36:00,53.1,48.7,29.83,NW,312,0.9,2.9,85,0.00,,,0.08,meteobridge,2013-09-14 03:36:00,
2013-09-13 23:42:00,52.9,48.6,29.83,NNE,19,0.0,0.9,85,0.00,,,0.08,meteobridge,2013-09-14 03:42:00,
2013-09-13 23:48:00,52.7,48.6,29.83,ESE,109,0.0,0.0,86,0.00,,,0.08,meteobridge,2013-09-14 03:48:00,
2013-09-13 23:54:00,52.5,48.4,29.83,NE,53,0.9,0.9,86,0.00,,,0.08,meteobridge,2013-09-14 03:54:00,